Portada
METAR-TAF:

METAR-TAF

Aeroports :

Alpnach, Suïssa

latitud: 46-56-19N, longitud: 8-17-03E, altitud: 440 m

Observació

L'informe es va fer fa 44 minuts, a les 12:50 UTC
Vent 5 kt del Nord/Nord-Est, variant entre Nord i Est/Nord-Est
Temperatura 21°C
Humitat 60%
Pressió 1005 hPa
Visibilitat 10 km o més
Cel ennuvolat a una alçada de 9900 ft

METAR: LSMA 061250Z AUTO 03005KT 350V070 9999NDV BKN099 21/13 Q1005 RMK

Hora: 15:34 (13:34 UTC)


TAF: manca

Observacions i pronòstics meteorològics de més de 4000 aeroports (METAR i TAF).

Les estacions disponibles són els punts grocs i vermells al mapa.

Posi el ratolí al punt desitjat per veure el nom de l'estació.

Feu clic per veure les observacions i els pronòstics meteorològics.

Per canviar el mapa: feu clic els botons verds amb una creu de color negre per apropar; al botó verd amb un guió per allunyar la imatge; o en les fletxes verdes per a mapes adjacents.


METAR-TAF: